sensor_id;sensor_type;location;lat;lon;timestamp;P1;durP1;ratioP1;P2;durP2;ratioP2
35990;SDS011;22064;42.672;23.282;2022-12-01T00:02:14;2.08;;;1.20;;
35990;SDS011;22064;42.672;23.282;2022-12-01T00:04:39;2.17;;;1.30;;
35990;SDS011;22064;42.672;23.282;2022-12-01T00:07:05;2.22;;;1.30;;
35990;SDS011;22064;42.672;23.282;2022-12-01T00:09:30;1.63;;;1.20;;
35990;SDS011;22064;42.672;23.282;2022-12-01T00:12:15;1.85;;;1.17;;
35990;SDS011;22064;42.672;23.282;2022-12-01T00:14:40;1.33;;;1.02;;
35990;SDS011;22064;42.672;23.282;2022-12-01T00:17:06;2.17;;;1.00;;
35990;SDS011;22064;42.672;23.282;2022-12-01T00:19:31;1.75;;;1.15;;
35990;SDS011;22064;42.672;23.282;2022-12-01T00:21:57;3.35;;;1.10;;
35990;SDS011;22064;42.672;23.282;2022-12-01T00:24:23;1.30;;;1.20;;
35990;SDS011;22064;42.672;23.282;2022-12-01T00:26:49;1.30;;;1.20;;
35990;SDS011;22064;42.672;23.282;2022-12-01T00:29:14;1.10;;;0.90;;
35990;SDS011;22064;42.672;23.282;2022-12-01T00:31:40;1.13;;;0.90;;
35990;SDS011;22064;42.672;23.282;2022-12-01T00:34:06;2.60;;;1.17;;
35990;SDS011;22064;42.672;23.282;2022-12-01T00:36:37;1.23;;;0.90;;
35990;SDS011;22064;42.672;23.282;2022-12-01T00:39:02;1.92;;;1.02;;
35990;SDS011;22064;42.672;23.282;2022-12-01T00:41:28;1.35;;;0.88;;
35990;SDS011;22064;42.672;23.282;2022-12-01T00:43:54;1.50;;;0.95;;
35990;SDS011;22064;42.672;23.282;2022-12-01T00:46:19;1.85;;;1.40;;
35990;SDS011;22064;42.672;23.282;2022-12-01T00:48:45;2.28;;;1.13;;
35990;SDS011;22064;42.672;23.282;2022-12-01T00:51:11;2.33;;;1.48;;
35990;SDS011;22064;42.672;23.282;2022-12-01T00:53:36;1.58;;;1.10;;
35990;SDS011;22064;42.672;23.282;2022-12-01T00:56:02;1.67;;;1.10;;
35990;SDS011;22064;42.672;23.282;2022-12-01T00:58:28;2.72;;;1.20;;
35990;SDS011;22064;42.672;23.282;2022-12-01T01:00:57;1.48;;;1.10;;
35990;SDS011;22064;42.672;23.282;2022-12-01T01:03:26;1.50;;;1.33;;
35990;SDS011;22064;42.672;23.282;2022-12-01T01:05:53;1.88;;;1.30;;
35990;SDS011;22064;42.672;23.282;2022-12-01T01:08:18;1.92;;;0.98;;
35990;SDS011;22064;42.672;23.282;2022-12-01T01:10:45;27.10;;;11.75;;
35990;SDS011;22064;42.672;23.282;2022-12-01T01:13:12;2.00;;;1.42;;
35990;SDS011;22064;42.672;23.282;2022-12-01T01:15:38;1.35;;;1.23;;
35990;SDS011;22064;42.672;23.282;2022-12-01T01:18:05;1.25;;;1.08;;
35990;SDS011;22064;42.672;23.282;2022-12-01T01:20:31;3.45;;;1.25;;
35990;SDS011;22064;42.672;23.282;2022-12-01T01:22:57;1.30;;;1.20;;
35990;SDS011;22064;42.672;23.282;2022-12-01T01:25:23;1.95;;;1.23;;
35990;SDS011;22064;42.672;23.282;2022-12-01T01:27:49;2.42;;;1.17;;
35990;SDS011;22064;42.672;23.282;2022-12-01T01:30:15;1.90;;;1.20;;
35990;SDS011;22064;42.672;23.282;2022-12-01T01:32:41;3.08;;;2.30;;
35990;SDS011;22064;42.672;23.282;2022-12-01T01:35:07;1.45;;;1.05;;
35990;SDS011;22064;42.672;23.282;2022-12-01T01:37:33;1.88;;;1.27;;
35990;SDS011;22064;42.672;23.282;2022-12-01T01:39:58;2.45;;;1.38;;
35990;SDS011;22064;42.672;23.282;2022-12-01T01:42:24;1.50;;;1.17;;
35990;SDS011;22064;42.672;23.282;2022-12-01T01:44:51;1.38;;;1.20;;
35990;SDS011;22064;42.672;23.282;2022-12-01T01:49:51;2.17;;;1.15;;
35990;SDS011;22064;42.672;23.282;2022-12-01T01:52:19;2.47;;;1.08;;
35990;SDS011;22064;42.672;23.282;2022-12-01T01:54:47;0.80;;;0.73;;
35990;SDS011;22064;42.672;23.282;2022-12-01T01:57:16;1.67;;;0.98;;
35990;SDS011;22064;42.672;23.282;2022-12-01T01:59:50;2.08;;;0.70;;
35990;SDS011;22064;42.672;23.282;2022-12-01T02:02:21;2.88;;;1.20;;
35990;SDS011;22064;42.672;23.282;2022-12-01T02:04:47;1.40;;;0.90;;
35990;SDS011;22064;42.672;23.282;2022-12-01T02:07:18;1.13;;;0.75;;
35990;SDS011;22064;42.672;23.282;2022-12-01T02:09:44;1.13;;;0.90;;
35990;SDS011;22064;42.672;23.282;2022-12-01T02:18:06;2.03;;;0.80;;
35990;SDS011;22064;42.672;23.282;2022-12-01T02:32:12;1.50;;;1.10;;
35990;SDS011;22064;42.672;23.282;2022-12-01T02:34:43;4.07;;;1.17;;
35990;SDS011;22064;42.672;23.282;2022-12-01T02:45:49;0.85;;;0.80;;
35990;SDS011;22064;42.672;23.282;2022-12-01T02:48:27;0.90;;;0.65;;
35990;SDS011;22064;42.672;23.282;2022-12-01T02:51:21;2.30;;;0.80;;
35990;SDS011;22064;42.672;23.282;2022-12-01T02:53:53;2.05;;;1.10;;
35990;SDS011;22064;42.672;23.282;2022-12-01T02:56:21;0.95;;;0.88;;
35990;SDS011;22064;42.672;23.282;2022-12-01T02:58:48;1.08;;;0.75;;
35990;SDS011;22064;42.672;23.282;2022-12-01T03:06:58;1.80;;;1.10;;
35990;SDS011;22064;42.672;23.282;2022-12-01T03:14:50;1.15;;;0.80;;
35990;SDS011;22064;42.672;23.282;2022-12-01T03:17:19;1.58;;;1.05;;
35990;SDS011;22064;42.672;23.282;2022-12-01T03:19:53;2.33;;;1.10;;
35990;SDS011;22064;42.672;23.282;2022-12-01T03:22:35;1.90;;;0.93;;
35990;SDS011;22064;42.672;23.282;2022-12-01T03:25:03;2.58;;;1.23;;
35990;SDS011;22064;42.672;23.282;2022-12-01T03:27:32;1.85;;;1.00;;
35990;SDS011;22064;42.672;23.282;2022-12-01T03:30:02;3.42;;;1.17;;
35990;SDS011;22064;42.672;23.282;2022-12-01T03:32:30;2.35;;;1.40;;
35990;SDS011;22064;42.672;23.282;2022-12-01T03:35:37;2.67;;;0.80;;
35990;SDS011;22064;42.672;23.282;2022-12-01T03:38:10;1.95;;;0.80;;
35990;SDS011;22064;42.672;23.282;2022-12-01T03:40:39;1.77;;;0.90;;
35990;SDS011;22064;42.672;23.282;2022-12-01T03:43:07;1.00;;;0.70;;
35990;SDS011;22064;42.672;23.282;2022-12-01T03:48:04;0.88;;;0.70;;
35990;SDS011;22064;42.672;23.282;2022-12-01T03:50:34;1.98;;;1.25;;
35990;SDS011;22064;42.672;23.282;2022-12-01T03:53:41;1.73;;;0.80;;
35990;SDS011;22064;42.672;23.282;2022-12-01T03:56:05;1.40;;;0.70;;
35990;SDS011;22064;42.672;23.282;2022-12-01T03:58:33;1.58;;;0.90;;
35990;SDS011;22064;42.672;23.282;2022-12-01T04:01:02;1.23;;;0.80;;
35990;SDS011;22064;42.672;23.282;2022-12-01T04:03:29;2.38;;;0.90;;
35990;SDS011;22064;42.672;23.282;2022-12-01T04:05:54;2.13;;;0.80;;
35990;SDS011;22064;42.672;23.282;2022-12-01T04:08:22;1.85;;;0.80;;
35990;SDS011;22064;42.672;23.282;2022-12-01T04:10:48;1.00;;;0.88;;
35990;SDS011;22064;42.672;23.282;2022-12-01T04:13:14;1.58;;;0.90;;
35990;SDS011;22064;42.672;23.282;2022-12-01T04:15:50;2.13;;;1.00;;
35990;SDS011;22064;42.672;23.282;2022-12-01T04:18:20;0.93;;;0.93;;
35990;SDS011;22064;42.672;23.282;2022-12-01T04:20:49;2.20;;;1.40;;
35990;SDS011;22064;42.672;23.282;2022-12-01T04:23:15;1.67;;;0.87;;
35990;SDS011;22064;42.672;23.282;2022-12-01T04:26:00;3.08;;;0.90;;
35990;SDS011;22064;42.672;23.282;2022-12-01T04:28:26;2.15;;;1.38;;
35990;SDS011;22064;42.672;23.282;2022-12-01T04:30:52;2.13;;;1.00;;
35990;SDS011;22064;42.672;23.282;2022-12-01T04:33:18;2.38;;;1.60;;
35990;SDS011;22064;42.672;23.282;2022-12-01T04:35:43;1.73;;;1.00;;
35990;SDS011;22064;42.672;23.282;2022-12-01T04:38:09;6.20;;;1.30;;
35990;SDS011;22064;42.672;23.282;2022-12-01T04:40:36;1.80;;;1.40;;
35990;SDS011;22064;42.672;23.282;2022-12-01T04:43:03;1.83;;;1.17;;
35990;SDS011;22064;42.672;23.282;2022-12-01T04:45:28;3.05;;;1.52;;
35990;SDS011;22064;42.672;23.282;2022-12-01T04:47:54;2.20;;;1.40;;
35990;SDS011;22064;42.672;23.282;2022-12-01T04:50:19;2.28;;;1.73;;
35990;SDS011;22064;42.672;23.282;2022-12-01T04:52:45;3.10;;;1.38;;
35990;SDS011;22064;42.672;23.282;2022-12-01T04:55:11;4.30;;;2.05;;
35990;SDS011;22064;42.672;23.282;2022-12-01T04:57:38;5.05;;;2.30;;
35990;SDS011;22064;42.672;23.282;2022-12-01T05:00:05;3.28;;;1.80;;
35990;SDS011;22064;42.672;23.282;2022-12-01T05:02:37;3.22;;;2.40;;
35990;SDS011;22064;42.672;23.282;2022-12-01T05:05:03;8.40;;;4.75;;
35990;SDS011;22064;42.672;23.282;2022-12-01T05:07:31;6.07;;;2.80;;
35990;SDS011;22064;42.672;23.282;2022-12-01T05:09:57;8.10;;;1.95;;
35990;SDS011;22064;42.672;23.282;2022-12-01T05:12:22;2.63;;;1.83;;
35990;SDS011;22064;42.672;23.282;2022-12-01T05:14:48;2.83;;;2.17;;
35990;SDS011;22064;42.672;23.282;2022-12-01T05:17:14;3.45;;;1.70;;
35990;SDS011;22064;42.672;23.282;2022-12-01T05:19:39;4.70;;;2.20;;
35990;SDS011;22064;42.672;23.282;2022-12-01T05:22:24;2.42;;;2.10;;
35990;SDS011;22064;42.672;23.282;2022-12-01T05:24:49;2.80;;;2.13;;
35990;SDS011;22064;42.672;23.282;2022-12-01T05:27:15;3.38;;;2.20;;
35990;SDS011;22064;42.672;23.282;2022-12-01T05:29:40;3.00;;;2.47;;
35990;SDS011;22064;42.672;23.282;2022-12-01T05:32:06;8.07;;;2.65;;
35990;SDS011;22064;42.672;23.282;2022-12-01T05:34:31;4.45;;;2.80;;
35990;SDS011;22064;42.672;23.282;2022-12-01T05:36:57;5.28;;;3.03;;
35990;SDS011;22064;42.672;23.282;2022-12-01T05:39:23;9.32;;;3.92;;
35990;SDS011;22064;42.672;23.282;2022-12-01T05:41:48;7.95;;;3.47;;
35990;SDS011;22064;42.672;23.282;2022-12-01T05:44:14;6.03;;;3.15;;
35990;SDS011;22064;42.672;23.282;2022-12-01T05:46:39;6.43;;;3.13;;
35990;SDS011;22064;42.672;23.282;2022-12-01T05:49:05;5.43;;;3.05;;
35990;SDS011;22064;42.672;23.282;2022-12-01T05:51:31;6.13;;;2.92;;
35990;SDS011;22064;42.672;23.282;2022-12-01T05:53:57;4.13;;;2.92;;
35990;SDS011;22064;42.672;23.282;2022-12-01T05:56:23;6.07;;;3.08;;
35990;SDS011;22064;42.672;23.282;2022-12-01T05:58:49;6.53;;;3.30;;
35990;SDS011;22064;42.672;23.282;2022-12-01T06:01:14;5.90;;;3.38;;
35990;SDS011;22064;42.672;23.282;2022-12-01T06:03:40;7.80;;;3.60;;
35990;SDS011;22064;42.672;23.282;2022-12-01T06:06:06;9.48;;;4.43;;
35990;SDS011;22064;42.672;23.282;2022-12-01T06:08:31;8.52;;;3.85;;
35990;SDS011;22064;42.672;23.282;2022-12-01T06:10:57;11.02;;;4.40;;
35990;SDS011;22064;42.672;23.282;2022-12-01T06:13:23;12.48;;;4.65;;
35990;SDS011;22064;42.672;23.282;2022-12-01T06:15:58;10.93;;;4.70;;
35990;SDS011;22064;42.672;23.282;2022-12-01T06:18:25;8.77;;;4.47;;
35990;SDS011;22064;42.672;23.282;2022-12-01T06:20:51;8.57;;;4.22;;
35990;SDS011;22064;42.672;23.282;2022-12-01T06:23:17;7.25;;;3.53;;
35990;SDS011;22064;42.672;23.282;2022-12-01T06:25:43;7.85;;;3.75;;
35990;SDS011;22064;42.672;23.282;2022-12-01T06:28:08;5.07;;;3.08;;
35990;SDS011;22064;42.672;23.282;2022-12-01T06:30:34;5.68;;;3.10;;
35990;SDS011;22064;42.672;23.282;2022-12-01T06:32:59;6.43;;;3.10;;
35990;SDS011;22064;42.672;23.282;2022-12-01T06:35:25;5.75;;;3.40;;
35990;SDS011;22064;42.672;23.282;2022-12-01T06:37:51;4.97;;;2.85;;
35990;SDS011;22064;42.672;23.282;2022-12-01T06:40:18;7.03;;;3.17;;
35990;SDS011;22064;42.672;23.282;2022-12-01T06:42:44;7.85;;;3.25;;
35990;SDS011;22064;42.672;23.282;2022-12-01T06:45:10;7.25;;;3.42;;
35990;SDS011;22064;42.672;23.282;2022-12-01T06:47:36;5.20;;;3.10;;
35990;SDS011;22064;42.672;23.282;2022-12-01T06:50:02;6.72;;;3.60;;
35990;SDS011;22064;42.672;23.282;2022-12-01T06:52:32;6.07;;;2.78;;
35990;SDS011;22064;42.672;23.282;2022-12-01T06:54:58;5.97;;;3.42;;
35990;SDS011;22064;42.672;23.282;2022-12-01T06:57:24;5.13;;;3.05;;
35990;SDS011;22064;42.672;23.282;2022-12-01T06:59:50;4.63;;;2.85;;
35990;SDS011;22064;42.672;23.282;2022-12-01T07:02:16;6.32;;;2.85;;
35990;SDS011;22064;42.672;23.282;2022-12-01T07:04:41;4.85;;;2.42;;
35990;SDS011;22064;42.672;23.282;2022-12-01T07:07:07;5.22;;;2.35;;
35990;SDS011;22064;42.672;23.282;2022-12-01T07:09:33;4.07;;;2.10;;
35990;SDS011;22064;42.672;23.282;2022-12-01T07:11:59;4.50;;;1.75;;
35990;SDS011;22064;42.672;23.282;2022-12-01T07:14:25;3.13;;;2.10;;
35990;SDS011;22064;42.672;23.282;2022-12-01T07:16:51;3.78;;;1.80;;
35990;SDS011;22064;42.672;23.282;2022-12-01T07:19:17;2.40;;;1.85;;
35990;SDS011;22064;42.672;23.282;2022-12-01T07:21:43;3.72;;;2.00;;
35990;SDS011;22064;42.672;23.282;2022-12-01T07:24:08;3.85;;;2.17;;
35990;SDS011;22064;42.672;23.282;2022-12-01T07:26:34;5.53;;;2.42;;
35990;SDS011;22064;42.672;23.282;2022-12-01T07:28:59;3.60;;;2.15;;
35990;SDS011;22064;42.672;23.282;2022-12-01T07:31:25;6.55;;;2.40;;
35990;SDS011;22064;42.672;23.282;2022-12-01T07:33:51;4.10;;;1.88;;
35990;SDS011;22064;42.672;23.282;2022-12-01T07:36:16;3.90;;;2.00;;
35990;SDS011;22064;42.672;23.282;2022-12-01T07:38:42;3.80;;;1.98;;
35990;SDS011;22064;42.672;23.282;2022-12-01T07:41:11;5.20;;;2.17;;
35990;SDS011;22064;42.672;23.282;2022-12-01T07:43:39;5.22;;;1.92;;
35990;SDS011;22064;42.672;23.282;2022-12-01T07:46:09;3.30;;;2.03;;
35990;SDS011;22064;42.672;23.282;2022-12-01T07:48:37;3.45;;;1.92;;
35990;SDS011;22064;42.672;23.282;2022-12-01T07:51:04;3.33;;;1.60;;
35990;SDS011;22064;42.672;23.282;2022-12-01T07:53:30;4.95;;;2.13;;
35990;SDS011;22064;42.672;23.282;2022-12-01T07:55:56;4.53;;;1.90;;
35990;SDS011;22064;42.672;23.282;2022-12-01T07:58:21;4.60;;;1.70;;
35990;SDS011;22064;42.672;23.282;2022-12-01T08:00:47;6.60;;;2.10;;
35990;SDS011;22064;42.672;23.282;2022-12-01T08:03:12;4.97;;;2.40;;
35990;SDS011;22064;42.672;23.282;2022-12-01T08:05:38;3.83;;;1.70;;
35990;SDS011;22064;42.672;23.282;2022-12-01T08:08:04;4.05;;;1.90;;
35990;SDS011;22064;42.672;23.282;2022-12-01T08:10:30;4.30;;;1.85;;
35990;SDS011;22064;42.672;23.282;2022-12-01T08:12:55;7.28;;;2.22;;
35990;SDS011;22064;42.672;23.282;2022-12-01T08:15:21;5.35;;;2.38;;
35990;SDS011;22064;42.672;23.282;2022-12-01T08:17:47;3.60;;;1.70;;
35990;SDS011;22064;42.672;23.282;2022-12-01T08:20:12;3.88;;;2.00;;
35990;SDS011;22064;42.672;23.282;2022-12-01T08:22:39;3.95;;;1.90;;
35990;SDS011;22064;42.672;23.282;2022-12-01T08:25:05;4.80;;;1.70;;
35990;SDS011;22064;42.672;23.282;2022-12-01T08:27:32;3.97;;;1.83;;
35990;SDS011;22064;42.672;23.282;2022-12-01T08:29:58;7.03;;;2.25;;
35990;SDS011;22064;42.672;23.282;2022-12-01T08:32:23;5.70;;;1.95;;
35990;SDS011;22064;42.672;23.282;2022-12-01T08:34:49;6.65;;;2.70;;
35990;SDS011;22064;42.672;23.282;2022-12-01T08:37:15;3.63;;;2.55;;
35990;SDS011;22064;42.672;23.282;2022-12-01T08:39:40;5.85;;;2.00;;
35990;SDS011;22064;42.672;23.282;2022-12-01T08:42:06;5.88;;;2.20;;
35990;SDS011;22064;42.672;23.282;2022-12-01T08:44:31;4.65;;;1.98;;
35990;SDS011;22064;42.672;23.282;2022-12-01T08:46:57;4.18;;;1.80;;
35990;SDS011;22064;42.672;23.282;2022-12-01T08:49:22;4.63;;;2.20;;
35990;SDS011;22064;42.672;23.282;2022-12-01T08:51:48;7.20;;;2.72;;
35990;SDS011;22064;42.672;23.282;2022-12-01T08:54:15;11.02;;;3.00;;
35990;SDS011;22064;42.672;23.282;2022-12-01T08:56:41;4.85;;;1.95;;
35990;SDS011;22064;42.672;23.282;2022-12-01T08:59:08;3.20;;;2.13;;
35990;SDS011;22064;42.672;23.282;2022-12-01T09:01:34;7.63;;;3.05;;
35990;SDS011;22064;42.672;23.282;2022-12-01T09:04:16;6.05;;;2.72;;
35990;SDS011;22064;42.672;23.282;2022-12-01T09:06:43;6.25;;;2.60;;
35990;SDS011;22064;42.672;23.282;2022-12-01T09:09:11;9.70;;;4.05;;
35990;SDS011;22064;42.672;23.282;2022-12-01T09:11:40;12.85;;;4.65;;
35990;SDS011;22064;42.672;23.282;2022-12-01T09:14:08;5.85;;;2.90;;
35990;SDS011;22064;42.672;23.282;2022-12-01T09:16:34;7.10;;;2.92;;
35990;SDS011;22064;42.672;23.282;2022-12-01T09:19:00;7.07;;;2.97;;
35990;SDS011;22064;42.672;23.282;2022-12-01T09:21:26;6.65;;;3.10;;
35990;SDS011;22064;42.672;23.282;2022-12-01T09:23:54;3.60;;;2.15;;
35990;SDS011;22064;42.672;23.282;2022-12-01T09:26:20;4.10;;;2.22;;
35990;SDS011;22064;42.672;23.282;2022-12-01T09:28:51;4.68;;;2.25;;
35990;SDS011;22064;42.672;23.282;2022-12-01T09:31:19;5.10;;;2.42;;
35990;SDS011;22064;42.672;23.282;2022-12-01T09:33:47;5.38;;;2.30;;
35990;SDS011;22064;42.672;23.282;2022-12-01T09:36:13;4.40;;;2.13;;
35990;SDS011;22064;42.672;23.282;2022-12-01T09:38:38;4.88;;;2.38;;
35990;SDS011;22064;42.672;23.282;2022-12-01T09:41:06;3.50;;;2.08;;
35990;SDS011;22064;42.672;23.282;2022-12-01T09:43:47;3.73;;;1.70;;
35990;SDS011;22064;42.672;23.282;2022-12-01T09:46:31;4.63;;;2.22;;
35990;SDS011;22064;42.672;23.282;2022-12-01T09:49:02;3.92;;;2.20;;
35990;SDS011;22064;42.672;23.282;2022-12-01T09:51:29;6.85;;;2.67;;
35990;SDS011;22064;42.672;23.282;2022-12-01T09:54:00;5.13;;;2.10;;
35990;SDS011;22064;42.672;23.282;2022-12-01T09:56:30;5.05;;;2.30;;
35990;SDS011;22064;42.672;23.282;2022-12-01T09:59:01;2.97;;;1.90;;
35990;SDS011;22064;42.672;23.282;2022-12-01T10:01:37;6.72;;;2.58;;
35990;SDS011;22064;42.672;23.282;2022-12-01T10:04:32;3.65;;;1.77;;
35990;SDS011;22064;42.672;23.282;2022-12-01T10:07:02;4.53;;;1.80;;
35990;SDS011;22064;42.672;23.282;2022-12-01T10:09:42;3.33;;;1.98;;
35990;SDS011;22064;42.672;23.282;2022-12-01T10:12:17;5.03;;;2.10;;
35990;SDS011;22064;42.672;23.282;2022-12-01T10:14:45;2.70;;;1.65;;
35990;SDS011;22064;42.672;23.282;2022-12-01T10:30:30;3.97;;;2.38;;
35990;SDS011;22064;42.672;23.282;2022-12-01T10:33:07;5.65;;;2.60;;
35990;SDS011;22064;42.672;23.282;2022-12-01T10:35:44;6.20;;;2.45;;
35990;SDS011;22064;42.672;23.282;2022-12-01T10:38:11;4.85;;;1.83;;
35990;SDS011;22064;42.672;23.282;2022-12-01T10:40:43;3.78;;;2.05;;
35990;SDS011;22064;42.672;23.282;2022-12-01T10:43:09;4.43;;;2.40;;
35990;SDS011;22064;42.672;23.282;2022-12-01T10:45:36;3.28;;;2.13;;
35990;SDS011;22064;42.672;23.282;2022-12-01T10:55:46;7.38;;;3.00;;
35990;SDS011;22064;42.672;23.282;2022-12-01T10:58:16;3.85;;;2.38;;
35990;SDS011;22064;42.672;23.282;2022-12-01T11:00:43;4.28;;;2.20;;
35990;SDS011;22064;42.672;23.282;2022-12-01T11:03:30;4.75;;;2.25;;
35990;SDS011;22064;42.672;23.282;2022-12-01T11:05:58;4.90;;;2.30;;
35990;SDS011;22064;42.672;23.282;2022-12-01T11:08:45;3.22;;;2.50;;
35990;SDS011;22064;42.672;23.282;2022-12-01T11:11:22;3.78;;;2.30;;
35990;SDS011;22064;42.672;23.282;2022-12-01T11:13:48;5.88;;;3.08;;
35990;SDS011;22064;42.672;23.282;2022-12-01T11:16:32;4.38;;;2.63;;
35990;SDS011;22064;42.672;23.282;2022-12-01T11:21:48;7.50;;;2.78;;
35990;SDS011;22064;42.672;23.282;2022-12-01T11:24:24;4.93;;;2.10;;
35990;SDS011;22064;42.672;23.282;2022-12-01T11:26:54;4.55;;;2.20;;
35990;SDS011;22064;42.672;23.282;2022-12-01T11:29:26;6.32;;;2.80;;
35990;SDS011;22064;42.672;23.282;2022-12-01T11:31:56;4.53;;;2.55;;
35990;SDS011;22064;42.672;23.282;2022-12-01T11:34:28;5.25;;;2.80;;
35990;SDS011;22064;42.672;23.282;2022-12-01T11:37:02;5.07;;;2.47;;
35990;SDS011;22064;42.672;23.282;2022-12-01T11:39:35;3.97;;;2.30;;
35990;SDS011;22064;42.672;23.282;2022-12-01T11:44:38;6.38;;;2.55;;
35990;SDS011;22064;42.672;23.282;2022-12-01T11:47:18;6.78;;;2.50;;
35990;SDS011;22064;42.672;23.282;2022-12-01T11:49:51;3.90;;;2.20;;
35990;SDS011;22064;42.672;23.282;2022-12-01T11:54:54;4.65;;;2.38;;
35990;SDS011;22064;42.672;23.282;2022-12-01T11:57:21;4.53;;;2.17;;
35990;SDS011;22064;42.672;23.282;2022-12-01T11:59:47;3.60;;;2.10;;
35990;SDS011;22064;42.672;23.282;2022-12-01T12:22:17;3.35;;;2.30;;
35990;SDS011;22064;42.672;23.282;2022-12-01T12:25:51;4.15;;;2.50;;
35990;SDS011;22064;42.672;23.282;2022-12-01T12:28:40;10.23;;;3.50;;
35990;SDS011;22064;42.672;23.282;2022-12-01T12:41:51;5.85;;;2.63;;
35990;SDS011;22064;42.672;23.282;2022-12-01T12:52:40;6.95;;;3.17;;
35990;SDS011;22064;42.672;23.282;2022-12-01T12:55:17;7.63;;;3.45;;
35990;SDS011;22064;42.672;23.282;2022-12-01T12:57:50;8.88;;;3.70;;
35990;SDS011;22064;42.672;23.282;2022-12-01T13:00:20;9.60;;;4.53;;
35990;SDS011;22064;42.672;23.282;2022-12-01T13:02:58;12.95;;;5.38;;
35990;SDS011;22064;42.672;23.282;2022-12-01T13:05:47;11.98;;;5.93;;
35990;SDS011;22064;42.672;23.282;2022-12-01T13:08:34;14.13;;;6.93;;
35990;SDS011;22064;42.672;23.282;2022-12-01T13:11:07;13.43;;;7.03;;
35990;SDS011;22064;42.672;23.282;2022-12-01T13:14:06;14.82;;;6.43;;
35990;SDS011;22064;42.672;23.282;2022-12-01T13:16:41;9.55;;;4.97;;
35990;SDS011;22064;42.672;23.282;2022-12-01T13:19:14;11.55;;;4.50;;
35990;SDS011;22064;42.672;23.282;2022-12-01T13:21:44;11.27;;;4.45;;
35990;SDS011;22064;42.672;23.282;2022-12-01T13:24:13;9.98;;;4.90;;
35990;SDS011;22064;42.672;23.282;2022-12-01T13:26:44;13.15;;;4.60;;
35990;SDS011;22064;42.672;23.282;2022-12-01T13:29:22;8.77;;;4.18;;
35990;SDS011;22064;42.672;23.282;2022-12-01T13:31:50;8.57;;;3.90;;
35990;SDS011;22064;42.672;23.282;2022-12-01T13:36:47;6.65;;;3.47;;
35990;SDS011;22064;42.672;23.282;2022-12-01T13:39:18;7.82;;;4.10;;
35990;SDS011;22064;42.672;23.282;2022-12-01T13:41:55;9.15;;;3.95;;
35990;SDS011;22064;42.672;23.282;2022-12-01T13:44:30;10.18;;;3.97;;
35990;SDS011;22064;42.672;23.282;2022-12-01T13:47:03;9.45;;;4.20;;
35990;SDS011;22064;42.672;23.282;2022-12-01T13:57:36;10.23;;;4.15;;
35990;SDS011;22064;42.672;23.282;2022-12-01T14:02:40;8.05;;;4.03;;
35990;SDS011;22064;42.672;23.282;2022-12-01T14:08:11;10.30;;;3.35;;
35990;SDS011;22064;42.672;23.282;2022-12-01T14:10:51;11.55;;;3.92;;
35990;SDS011;22064;42.672;23.282;2022-12-01T14:13:20;11.23;;;3.88;;
35990;SDS011;22064;42.672;23.282;2022-12-01T14:15:51;8.10;;;3.50;;
35990;SDS011;22064;42.672;23.282;2022-12-01T14:26:11;9.15;;;3.95;;
35990;SDS011;22064;42.672;23.282;2022-12-01T14:41:48;8.90;;;3.65;;
35990;SDS011;22064;42.672;23.282;2022-12-01T14:47:05;10.25;;;4.20;;
35990;SDS011;22064;42.672;23.282;2022-12-01T14:52:45;7.28;;;3.80;;
35990;SDS011;22064;42.672;23.282;2022-12-01T14:55:21;6.38;;;3.55;;
35990;SDS011;22064;42.672;23.282;2022-12-01T14:57:50;8.65;;;3.83;;
35990;SDS011;22064;42.672;23.282;2022-12-01T15:00:24;9.43;;;4.82;;
35990;SDS011;22064;42.672;23.282;2022-12-01T15:02:57;10.95;;;4.30;;
35990;SDS011;22064;42.672;23.282;2022-12-01T15:05:27;7.78;;;4.10;;
35990;SDS011;22064;42.672;23.282;2022-12-01T15:07:55;9.50;;;4.07;;
35990;SDS011;22064;42.672;23.282;2022-12-01T15:10:28;9.90;;;3.70;;
35990;SDS011;22064;42.672;23.282;2022-12-01T15:13:11;9.40;;;4.15;;
35990;SDS011;22064;42.672;23.282;2022-12-01T15:15:47;8.55;;;4.13;;
35990;SDS011;22064;42.672;23.282;2022-12-01T15:18:36;9.15;;;4.10;;
35990;SDS011;22064;42.672;23.282;2022-12-01T15:26:33;7.47;;;3.88;;
35990;SDS011;22064;42.672;23.282;2022-12-01T15:29:16;11.10;;;4.80;;
35990;SDS011;22064;42.672;23.282;2022-12-01T15:31:46;8.68;;;4.18;;
35990;SDS011;22064;42.672;23.282;2022-12-01T15:34:43;11.60;;;5.40;;
35990;SDS011;22064;42.672;23.282;2022-12-01T15:37:14;14.90;;;6.60;;
35990;SDS011;22064;42.672;23.282;2022-12-01T15:39:43;11.65;;;5.20;;
35990;SDS011;22064;42.672;23.282;2022-12-01T15:42:21;10.98;;;4.82;;
35990;SDS011;22064;42.672;23.282;2022-12-01T15:44:56;12.35;;;5.15;;
35990;SDS011;22064;42.672;23.282;2022-12-01T15:49:55;12.65;;;5.53;;
35990;SDS011;22064;42.672;23.282;2022-12-01T15:52:20;11.05;;;5.10;;
35990;SDS011;22064;42.672;23.282;2022-12-01T15:54:47;11.43;;;5.38;;
35990;SDS011;22064;42.672;23.282;2022-12-01T15:57:17;12.65;;;5.53;;
35990;SDS011;22064;42.672;23.282;2022-12-01T15:59:45;15.75;;;5.93;;
35990;SDS011;22064;42.672;23.282;2022-12-01T16:04:57;13.30;;;5.90;;
35990;SDS011;22064;42.672;23.282;2022-12-01T16:07:29;13.65;;;6.40;;
35990;SDS011;22064;42.672;23.282;2022-12-01T16:09:57;15.10;;;7.35;;
35990;SDS011;22064;42.672;23.282;2022-12-01T16:12:24;17.45;;;7.80;;
35990;SDS011;22064;42.672;23.282;2022-12-01T16:17:20;18.83;;;8.93;;
35990;SDS011;22064;42.672;23.282;2022-12-01T16:19:47;20.13;;;9.32;;
35990;SDS011;22064;42.672;23.282;2022-12-01T16:22:16;26.00;;;11.82;;
35990;SDS011;22064;42.672;23.282;2022-12-01T16:24:47;22.13;;;11.05;;
35990;SDS011;22064;42.672;23.282;2022-12-01T16:27:24;25.80;;;10.63;;
35990;SDS011;22064;42.672;23.282;2022-12-01T16:32:21;22.35;;;10.00;;
35990;SDS011;22064;42.672;23.282;2022-12-01T16:34:51;22.55;;;11.55;;
35990;SDS011;22064;42.672;23.282;2022-12-01T16:37:17;26.80;;;12.75;;
35990;SDS011;22064;42.672;23.282;2022-12-01T16:39:44;24.75;;;10.90;;
35990;SDS011;22064;42.672;23.282;2022-12-01T16:42:10;23.60;;;10.82;;
35990;SDS011;22064;42.672;23.282;2022-12-01T16:44:38;22.00;;;10.37;;
35990;SDS011;22064;42.672;23.282;2022-12-01T16:47:08;20.60;;;9.25;;
35990;SDS011;22064;42.672;23.282;2022-12-01T16:49:45;19.13;;;8.23;;
35990;SDS011;22064;42.672;23.282;2022-12-01T16:52:10;19.30;;;8.80;;
35990;SDS011;22064;42.672;23.282;2022-12-01T16:54:36;17.67;;;9.27;;
35990;SDS011;22064;42.672;23.282;2022-12-01T16:57:02;18.40;;;8.10;;
35990;SDS011;22064;42.672;23.282;2022-12-01T16:59:28;16.77;;;8.30;;
35990;SDS011;22064;42.672;23.282;2022-12-01T17:01:55;19.95;;;8.18;;
35990;SDS011;22064;42.672;23.282;2022-12-01T17:04:20;18.52;;;8.15;;
35990;SDS011;22064;42.672;23.282;2022-12-01T17:06:46;14.73;;;8.05;;
35990;SDS011;22064;42.672;23.282;2022-12-01T17:09:11;18.48;;;8.15;;
35990;SDS011;22064;42.672;23.282;2022-12-01T17:11:37;15.20;;;7.03;;
35990;SDS011;22064;42.672;23.282;2022-12-01T17:14:02;19.77;;;7.53;;
35990;SDS011;22064;42.672;23.282;2022-12-01T17:16:28;18.30;;;7.80;;
35990;SDS011;22064;42.672;23.282;2022-12-01T17:18:53;18.70;;;7.30;;
35990;SDS011;22064;42.672;23.282;2022-12-01T17:21:19;18.08;;;7.20;;
35990;SDS011;22064;42.672;23.282;2022-12-01T17:23:45;18.63;;;7.47;;
35990;SDS011;22064;42.672;23.282;2022-12-01T17:26:12;17.55;;;7.20;;
35990;SDS011;22064;42.672;23.282;2022-12-01T17:28:39;15.70;;;6.97;;
35990;SDS011;22064;42.672;23.282;2022-12-01T17:31:05;14.68;;;6.22;;
35990;SDS011;22064;42.672;23.282;2022-12-01T17:33:31;16.05;;;6.20;;